Taxiarchis — SV4443 — position and weather

sailwx.info

Track history (hours):
 
Tides and Currents Weather Stations Pressure Air Temp Water Temp Dewpoint Dewpoint Depression Visibility Wind Speed Wind Dir Waves Ship Positions

Taxiarchis

Last reported at 2017-Dec-12 15:02 UTC. Time now 2018-Feb-21 07:16 UTC.
Position N 37°51' E 023°30'.
Warning: this ship's position is months out of date.

Length 18 m; draft 1.8 m.

Type: Fishing. MMSI: 239565000.

Date/timePositionNaut miles runAvg speedWind from/ knotsBaromVisibWave heightAir tempDewpointWater temp
2017-Dec-12 15:02N 37°51' E 023°30'0 7.3
2017-Dec-12 15:00N 37°51' E 023°30'4 7.3
2017-Dec-12 14:30N 37°54' E 023°33'4 7.3
2017-Dec-12 14:00N 37°57' E 023°35'1 2.3
2017-Dec-12 13:30N 37°57' E 023°37'2 3.9
2017-Dec-12 13:00N 37°56' E 023°38'  
2017-Dec-08 17:11N 37°47' E 023°31'1 6.6
2017-Dec-08 17:00N 37°47' E 023°33'4 7.2
2017-Dec-08 16:30N 37°50' E 023°35'4 7.3
2017-Dec-08 16:00N 37°53' E 023°38'  
Track history (hours):
 
Tides and Currents Weather Stations Pressure Air Temp Water Temp Dewpoint Dewpoint Depression Visibility Wind Speed Wind Dir Waves Ship Positions

Taxiarchis

Last reported at 2017-Dec-12 15:02 UTC. Time now 2018-Feb-21 07:16 UTC.
Position N 37°51' E 023°30'.
Warning: this ship's position is months out of date.

Length 18 m; draft 1.8 m.

Type: Fishing. MMSI: 239565000.

Date/timePositionNaut miles runAvg speedWind from/ knotsBaromVisibWave heightAir tempDewpointWater temp
2017-Dec-12 15:02N 37°51' E 023°30'0 7.3
2017-Dec-12 15:00N 37°51' E 023°30'4 7.3
2017-Dec-12 14:30N 37°54' E 023°33'4 7.3
2017-Dec-12 14:00N 37°57' E 023°35'1 2.3
2017-Dec-12 13:30N 37°57' E 023°37'2 3.9
2017-Dec-12 13:00N 37°56' E 023°38'  
2017-Dec-08 17:11N 37°47' E 023°31'1 6.6
2017-Dec-08 17:00N 37°47' E 023°33'4 7.2
2017-Dec-08 16:30N 37°50' E 023°35'4 7.3
2017-Dec-08 16:00N 37°53' E 023°38'  

Dump ship's entire track history